sensor_id;sensor_type;location;lat;lon;timestamp;temperature;humidity
65072;DHT22;51663;52.310;17.016;2023-08-06T00:00:30;30.20;47.50
65072;DHT22;51663;52.310;17.016;2023-08-06T00:03:53;30.60;46.40
65072;DHT22;51663;52.310;17.016;2023-08-06T00:06:55;30.10;47.30
65072;DHT22;51663;52.310;17.016;2023-08-06T00:09:58;30.10;48.30
65072;DHT22;51663;52.310;17.016;2023-08-06T00:13:00;29.80;48.00
65072;DHT22;51663;52.310;17.016;2023-08-06T00:16:10;30.00;47.60
65072;DHT22;51663;52.310;17.016;2023-08-06T00:19:13;30.00;47.40
65072;DHT22;51663;52.310;17.016;2023-08-06T00:22:16;30.10;47.60
65072;DHT22;51663;52.310;17.016;2023-08-06T00:25:18;30.00;47.40
65072;DHT22;51663;52.310;17.016;2023-08-06T00:28:22;29.80;47.50
65072;DHT22;51663;52.310;17.016;2023-08-06T00:31:24;29.80;48.10
65072;DHT22;51663;52.310;17.016;2023-08-06T00:34:26;30.20;47.30
65072;DHT22;51663;52.310;17.016;2023-08-06T00:37:28;30.30;47.10
65072;DHT22;51663;52.310;17.016;2023-08-06T00:40:31;29.90;47.50
65072;DHT22;51663;52.310;17.016;2023-08-06T00:43:33;30.00;47.40
65072;DHT22;51663;52.310;17.016;2023-08-06T00:46:36;29.80;47.90
65072;DHT22;51663;52.310;17.016;2023-08-06T00:49:39;30.20;47.40
65072;DHT22;51663;52.310;17.016;2023-08-06T00:52:44;29.90;47.70
65072;DHT22;51663;52.310;17.016;2023-08-06T00:55:47;30.20;47.30
65072;DHT22;51663;52.310;17.016;2023-08-06T00:58:50;29.90;47.60
65072;DHT22;51663;52.310;17.016;2023-08-06T01:01:52;29.70;48.40
65072;DHT22;51663;52.310;17.016;2023-08-06T01:04:55;30.30;47.00
65072;DHT22;51663;52.310;17.016;2023-08-06T01:18:11;29.60;48.70
65072;DHT22;51663;52.310;17.016;2023-08-06T01:21:13;29.00;50.10
65072;DHT22;51663;52.310;17.016;2023-08-06T01:24:16;29.00;49.90
65072;DHT22;51663;52.310;17.016;2023-08-06T01:30:28;29.30;49.60
65072;DHT22;51663;52.310;17.016;2023-08-06T01:33:32;29.40;50.40
65072;DHT22;51663;52.310;17.016;2023-08-06T01:36:38;29.30;49.40
65072;DHT22;51663;52.310;17.016;2023-08-06T01:39:43;29.00;50.00
65072;DHT22;51663;52.310;17.016;2023-08-06T01:42:46;28.90;50.50
65072;DHT22;51663;52.310;17.016;2023-08-06T01:45:48;28.70;50.70
65072;DHT22;51663;52.310;17.016;2023-08-06T01:48:50;28.70;50.90
65072;DHT22;51663;52.310;17.016;2023-08-06T01:51:52;28.60;51.30
65072;DHT22;51663;52.310;17.016;2023-08-06T01:54:55;28.50;51.70
65072;DHT22;51663;52.310;17.016;2023-08-06T01:57:58;28.90;50.50
65072;DHT22;51663;52.310;17.016;2023-08-06T02:01:01;29.10;50.20
65072;DHT22;51663;52.310;17.016;2023-08-06T02:04:04;29.00;50.50
65072;DHT22;51663;52.310;17.016;2023-08-06T02:07:06;29.50;49.50
65072;DHT22;51663;52.310;17.016;2023-08-06T02:10:09;29.20;49.80
65072;DHT22;51663;52.310;17.016;2023-08-06T02:13:12;29.40;49.80
65072;DHT22;51663;52.310;17.016;2023-08-06T02:16:14;29.50;49.10
65072;DHT22;51663;52.310;17.016;2023-08-06T02:19:16;29.30;49.70
65072;DHT22;51663;52.310;17.016;2023-08-06T02:22:19;28.90;50.30
65072;DHT22;51663;52.310;17.016;2023-08-06T02:25:21;29.40;49.80
65072;DHT22;51663;52.310;17.016;2023-08-06T02:28:23;29.20;49.80
65072;DHT22;51663;52.310;17.016;2023-08-06T02:31:26;28.90;50.60
65072;DHT22;51663;52.310;17.016;2023-08-06T02:34:28;28.90;50.50
65072;DHT22;51663;52.310;17.016;2023-08-06T02:37:33;29.10;50.30
65072;DHT22;51663;52.310;17.016;2023-08-06T02:40:36;29.00;50.20
65072;DHT22;51663;52.310;17.016;2023-08-06T02:43:38;28.30;51.40
65072;DHT22;51663;52.310;17.016;2023-08-06T02:46:40;28.30;51.60
65072;DHT22;51663;52.310;17.016;2023-08-06T02:49:43;28.60;51.00
65072;DHT22;51663;52.310;17.016;2023-08-06T02:52:45;28.70;50.60
65072;DHT22;51663;52.310;17.016;2023-08-06T02:55:48;28.40;51.70
65072;DHT22;51663;52.310;17.016;2023-08-06T02:58:50;28.50;51.20
65072;DHT22;51663;52.310;17.016;2023-08-06T03:01:53;29.00;50.50
65072;DHT22;51663;52.310;17.016;2023-08-06T03:04:55;29.00;50.20
65072;DHT22;51663;52.310;17.016;2023-08-06T03:07:58;28.50;50.70
65072;DHT22;51663;52.310;17.016;2023-08-06T03:11:00;28.70;51.10
65072;DHT22;51663;52.310;17.016;2023-08-06T03:14:03;28.40;51.40
65072;DHT22;51663;52.310;17.016;2023-08-06T03:17:05;28.30;51.70
65072;DHT22;51663;52.310;17.016;2023-08-06T03:20:08;28.00;52.40
65072;DHT22;51663;52.310;17.016;2023-08-06T03:23:11;27.90;52.60
65072;DHT22;51663;52.310;17.016;2023-08-06T03:26:14;28.30;52.00
65072;DHT22;51663;52.310;17.016;2023-08-06T03:29:16;28.20;52.10
65072;DHT22;51663;52.310;17.016;2023-08-06T03:32:18;28.20;51.70
65072;DHT22;51663;52.310;17.016;2023-08-06T03:35:21;28.40;51.30
65072;DHT22;51663;52.310;17.016;2023-08-06T03:38:24;28.50;51.40
65072;DHT22;51663;52.310;17.016;2023-08-06T03:41:26;28.50;50.90
65072;DHT22;51663;52.310;17.016;2023-08-06T03:44:29;28.50;51.50
65072;DHT22;51663;52.310;17.016;2023-08-06T03:47:31;28.70;50.60
65072;DHT22;51663;52.310;17.016;2023-08-06T03:50:34;28.30;51.30
65072;DHT22;51663;52.310;17.016;2023-08-06T03:53:36;28.60;50.90
65072;DHT22;51663;52.310;17.016;2023-08-06T03:56:39;28.50;50.60
65072;DHT22;51663;52.310;17.016;2023-08-06T03:59:42;28.10;51.50
65072;DHT22;51663;52.310;17.016;2023-08-06T04:02:53;28.40;50.80
65072;DHT22;51663;52.310;17.016;2023-08-06T04:05:55;28.80;50.50
65072;DHT22;51663;52.310;17.016;2023-08-06T04:08:59;29.30;49.40
65072;DHT22;51663;52.310;17.016;2023-08-06T04:12:01;28.80;50.00
65072;DHT22;51663;52.310;17.016;2023-08-06T04:15:05;29.30;49.20
65072;DHT22;51663;52.310;17.016;2023-08-06T04:18:08;29.50;48.80
65072;DHT22;51663;52.310;17.016;2023-08-06T04:21:10;29.10;49.50
65072;DHT22;51663;52.310;17.016;2023-08-06T04:24:13;29.10;49.50
65072;DHT22;51663;52.310;17.016;2023-08-06T04:27:16;28.60;50.40
65072;DHT22;51663;52.310;17.016;2023-08-06T04:30:18;28.40;51.10
65072;DHT22;51663;52.310;17.016;2023-08-06T04:33:23;28.70;50.10
65072;DHT22;51663;52.310;17.016;2023-08-06T04:36:25;29.40;49.30
65072;DHT22;51663;52.310;17.016;2023-08-06T04:39:28;30.00;47.50
65072;DHT22;51663;52.310;17.016;2023-08-06T04:42:30;31.20;46.00
65072;DHT22;51663;52.310;17.016;2023-08-06T04:45:32;32.00;44.50
65072;DHT22;51663;52.310;17.016;2023-08-06T04:48:34;32.60;43.30
65072;DHT22;51663;52.310;17.016;2023-08-06T04:51:37;32.80;42.60
65072;DHT22;51663;52.310;17.016;2023-08-06T04:54:40;32.90;42.40
65072;DHT22;51663;52.310;17.016;2023-08-06T04:57:42;32.90;41.90
65072;DHT22;51663;52.310;17.016;2023-08-06T05:00:44;32.90;42.30
65072;DHT22;51663;52.310;17.016;2023-08-06T05:03:47;32.90;42.10
65072;DHT22;51663;52.310;17.016;2023-08-06T05:06:49;32.80;42.10
65072;DHT22;51663;52.310;17.016;2023-08-06T05:09:52;32.80;42.20
65072;DHT22;51663;52.310;17.016;2023-08-06T05:12:56;32.90;41.80
65072;DHT22;51663;52.310;17.016;2023-08-06T05:15:59;32.60;42.20
65072;DHT22;51663;52.310;17.016;2023-08-06T05:19:01;31.70;43.50
65072;DHT22;51663;52.310;17.016;2023-08-06T05:22:05;30.60;45.60
65072;DHT22;51663;52.310;17.016;2023-08-06T05:25:08;30.10;47.50
65072;DHT22;51663;52.310;17.016;2023-08-06T05:28:10;29.70;47.80
65072;DHT22;51663;52.310;17.016;2023-08-06T05:31:13;28.80;49.50
65072;DHT22;51663;52.310;17.016;2023-08-06T05:34:15;29.20;49.40
65072;DHT22;51663;52.310;17.016;2023-08-06T05:37:18;29.70;48.30
65072;DHT22;51663;52.310;17.016;2023-08-06T05:40:20;29.90;47.70
65072;DHT22;51663;52.310;17.016;2023-08-06T05:43:22;30.90;46.20
65072;DHT22;51663;52.310;17.016;2023-08-06T05:46:26;31.70;44.50
65072;DHT22;51663;52.310;17.016;2023-08-06T05:49:28;32.30;43.20
65072;DHT22;51663;52.310;17.016;2023-08-06T05:52:31;32.80;42.40
65072;DHT22;51663;52.310;17.016;2023-08-06T05:55:34;32.90;41.80
65072;DHT22;51663;52.310;17.016;2023-08-06T05:58:37;32.90;41.90
65072;DHT22;51663;52.310;17.016;2023-08-06T06:01:39;32.40;42.40
65072;DHT22;51663;52.310;17.016;2023-08-06T06:04:42;31.10;44.20
65072;DHT22;51663;52.310;17.016;2023-08-06T06:07:44;30.40;45.60
65072;DHT22;51663;52.310;17.016;2023-08-06T06:10:46;30.30;46.20
65072;DHT22;51663;52.310;17.016;2023-08-06T06:13:52;30.10;46.70
65072;DHT22;51663;52.310;17.016;2023-08-06T06:16:54;30.20;46.50
65072;DHT22;51663;52.310;17.016;2023-08-06T06:19:57;30.70;45.50
65072;DHT22;51663;52.310;17.016;2023-08-06T06:23:00;30.50;45.50
65072;DHT22;51663;52.310;17.016;2023-08-06T06:26:02;30.10;46.50
65072;DHT22;51663;52.310;17.016;2023-08-06T06:29:05;29.50;47.60
65072;DHT22;51663;52.310;17.016;2023-08-06T06:32:09;29.30;48.20
65072;DHT22;51663;52.310;17.016;2023-08-06T06:35:12;29.10;48.50
65072;DHT22;51663;52.310;17.016;2023-08-06T06:38:15;29.30;48.20
65072;DHT22;51663;52.310;17.016;2023-08-06T06:41:17;29.10;49.50
65072;DHT22;51663;52.310;17.016;2023-08-06T06:44:20;29.00;49.00
65072;DHT22;51663;52.310;17.016;2023-08-06T06:47:23;28.80;49.10
65072;DHT22;51663;52.310;17.016;2023-08-06T06:50:25;29.00;49.20
65072;DHT22;51663;52.310;17.016;2023-08-06T06:53:29;28.80;49.30
65072;DHT22;51663;52.310;17.016;2023-08-06T06:56:32;28.60;50.00
65072;DHT22;51663;52.310;17.016;2023-08-06T06:59:35;28.60;49.70
65072;DHT22;51663;52.310;17.016;2023-08-06T07:02:37;28.40;50.30
65072;DHT22;51663;52.310;17.016;2023-08-06T07:05:40;28.70;49.90
65072;DHT22;51663;52.310;17.016;2023-08-06T07:08:42;28.30;50.60
65072;DHT22;51663;52.310;17.016;2023-08-06T07:11:44;28.20;50.90
65072;DHT22;51663;52.310;17.016;2023-08-06T07:14:47;28.50;50.10
65072;DHT22;51663;52.310;17.016;2023-08-06T07:17:50;28.80;49.80
65072;DHT22;51663;52.310;17.016;2023-08-06T07:20:53;29.10;48.90
65072;DHT22;51663;52.310;17.016;2023-08-06T07:23:56;29.50;48.20
65072;DHT22;51663;52.310;17.016;2023-08-06T07:27:00;30.10;46.80
65072;DHT22;51663;52.310;17.016;2023-08-06T07:30:03;29.70;47.80
65072;DHT22;51663;52.310;17.016;2023-08-06T07:33:07;29.30;48.10
65072;DHT22;51663;52.310;17.016;2023-08-06T07:36:12;29.70;48.40
65072;DHT22;51663;52.310;17.016;2023-08-06T07:39:14;30.80;46.40
65072;DHT22;51663;52.310;17.016;2023-08-06T07:42:20;31.30;44.90
65072;DHT22;51663;52.310;17.016;2023-08-06T07:45:23;30.90;45.00
65072;DHT22;51663;52.310;17.016;2023-08-06T07:48:27;30.90;45.40
65072;DHT22;51663;52.310;17.016;2023-08-06T07:51:29;30.80;46.20
65072;DHT22;51663;52.310;17.016;2023-08-06T07:54:32;30.70;45.80
65072;DHT22;51663;52.310;17.016;2023-08-06T07:57:34;30.40;46.30
65072;DHT22;51663;52.310;17.016;2023-08-06T08:00:40;30.10;47.00
65072;DHT22;51663;52.310;17.016;2023-08-06T08:03:44;30.70;46.00
65072;DHT22;51663;52.310;17.016;2023-08-06T08:06:48;30.60;45.80
65072;DHT22;51663;52.310;17.016;2023-08-06T08:09:50;30.80;45.80
65072;DHT22;51663;52.310;17.016;2023-08-06T08:12:53;31.10;45.50
65072;DHT22;51663;52.310;17.016;2023-08-06T08:15:59;31.70;44.30
65072;DHT22;51663;52.310;17.016;2023-08-06T08:19:02;32.30;43.20
65072;DHT22;51663;52.310;17.016;2023-08-06T08:22:06;32.30;43.30
65072;DHT22;51663;52.310;17.016;2023-08-06T08:25:09;32.70;42.50
65072;DHT22;51663;52.310;17.016;2023-08-06T08:28:11;33.10;41.70
65072;DHT22;51663;52.310;17.016;2023-08-06T08:31:14;32.80;42.20
65072;DHT22;51663;52.310;17.016;2023-08-06T08:34:16;32.20;42.80
65072;DHT22;51663;52.310;17.016;2023-08-06T08:37:19;31.20;44.30
65072;DHT22;51663;52.310;17.016;2023-08-06T08:40:32;30.60;45.80
65072;DHT22;51663;52.310;17.016;2023-08-06T08:43:35;29.70;47.60
65072;DHT22;51663;52.310;17.016;2023-08-06T08:46:40;30.20;46.90
65072;DHT22;51663;52.310;17.016;2023-08-06T08:49:43;30.50;46.50
65072;DHT22;51663;52.310;17.016;2023-08-06T08:52:46;31.20;45.50
65072;DHT22;51663;52.310;17.016;2023-08-06T08:55:51;31.60;44.70
65072;DHT22;51663;52.310;17.016;2023-08-06T08:58:54;32.20;43.40
65072;DHT22;51663;52.310;17.016;2023-08-06T09:01:58;32.60;42.60
65072;DHT22;51663;52.310;17.016;2023-08-06T09:05:03;32.40;42.80
65072;DHT22;51663;52.310;17.016;2023-08-06T09:08:08;32.50;43.10
65072;DHT22;51663;52.310;17.016;2023-08-06T09:11:13;32.60;42.50
65072;DHT22;51663;52.310;17.016;2023-08-06T09:14:16;31.60;43.80
65072;DHT22;51663;52.310;17.016;2023-08-06T09:17:18;30.20;46.20
65072;DHT22;51663;52.310;17.016;2023-08-06T09:20:22;29.30;48.50
65072;DHT22;51663;52.310;17.016;2023-08-06T09:23:29;29.40;48.20
65072;DHT22;51663;52.310;17.016;2023-08-06T09:26:33;28.30;50.50
65072;DHT22;51663;52.310;17.016;2023-08-06T09:29:40;28.20;51.30
65072;DHT22;51663;52.310;17.016;2023-08-06T09:32:45;28.10;51.40
65072;DHT22;51663;52.310;17.016;2023-08-06T09:35:51;28.30;51.20
65072;DHT22;51663;52.310;17.016;2023-08-06T09:38:55;29.20;49.40
65072;DHT22;51663;52.310;17.016;2023-08-06T09:41:59;29.30;49.10
65072;DHT22;51663;52.310;17.016;2023-08-06T09:45:07;29.20;49.10
65072;DHT22;51663;52.310;17.016;2023-08-06T09:48:11;29.10;49.30
65072;DHT22;51663;52.310;17.016;2023-08-06T09:51:14;28.70;49.70
65072;DHT22;51663;52.310;17.016;2023-08-06T09:54:17;29.30;49.40
65072;DHT22;51663;52.310;17.016;2023-08-06T09:57:30;30.10;47.80
65072;DHT22;51663;52.310;17.016;2023-08-06T10:00:33;30.40;47.00
65072;DHT22;51663;52.310;17.016;2023-08-06T10:03:41;30.80;46.10
65072;DHT22;51663;52.310;17.016;2023-08-06T10:06:47;30.40;46.40
65072;DHT22;51663;52.310;17.016;2023-08-06T10:09:50;30.10;47.40
65072;DHT22;51663;52.310;17.016;2023-08-06T10:12:55;29.70;48.50
65072;DHT22;51663;52.310;17.016;2023-08-06T10:15:59;30.50;47.30
65072;DHT22;51663;52.310;17.016;2023-08-06T10:19:02;31.50;45.30
65072;DHT22;51663;52.310;17.016;2023-08-06T10:22:12;31.60;44.60
65072;DHT22;51663;52.310;17.016;2023-08-06T10:25:18;30.70;46.30
65072;DHT22;51663;52.310;17.016;2023-08-06T10:28:20;30.80;46.90
65072;DHT22;51663;52.310;17.016;2023-08-06T10:31:55;31.00;45.80
65072;DHT22;51663;52.310;17.016;2023-08-06T10:35:00;30.10;47.50
65072;DHT22;51663;52.310;17.016;2023-08-06T10:41:29;30.70;46.90
65072;DHT22;51663;52.310;17.016;2023-08-06T10:44:31;30.40;46.90
65072;DHT22;51663;52.310;17.016;2023-08-06T10:47:43;31.00;46.10
65072;DHT22;51663;52.310;17.016;2023-08-06T10:50:46;31.40;45.40
65072;DHT22;51663;52.310;17.016;2023-08-06T10:53:50;31.50;45.00
65072;DHT22;51663;52.310;17.016;2023-08-06T10:56:52;32.00;44.50
65072;DHT22;51663;52.310;17.016;2023-08-06T10:59:54;32.30;43.70
65072;DHT22;51663;52.310;17.016;2023-08-06T11:03:17;32.00;43.90
65072;DHT22;51663;52.310;17.016;2023-08-06T11:06:21;32.70;43.10
65072;DHT22;51663;52.310;17.016;2023-08-06T11:09:23;32.90;42.60
65072;DHT22;51663;52.310;17.016;2023-08-06T11:12:25;33.40;42.00
65072;DHT22;51663;52.310;17.016;2023-08-06T11:15:28;33.70;41.50
65072;DHT22;51663;52.310;17.016;2023-08-06T11:18:31;33.60;41.60
65072;DHT22;51663;52.310;17.016;2023-08-06T11:21:33;33.80;41.00
65072;DHT22;51663;52.310;17.016;2023-08-06T11:24:37;33.70;41.00
65072;DHT22;51663;52.310;17.016;2023-08-06T11:27:40;33.60;41.20
65072;DHT22;51663;52.310;17.016;2023-08-06T11:30:42;33.60;41.40
65072;DHT22;51663;52.310;17.016;2023-08-06T11:33:44;33.70;41.30
65072;DHT22;51663;52.310;17.016;2023-08-06T11:36:47;33.70;41.00
65072;DHT22;51663;52.310;17.016;2023-08-06T11:39:50;33.90;41.00
65072;DHT22;51663;52.310;17.016;2023-08-06T11:42:52;33.90;40.90
65072;DHT22;51663;52.310;17.016;2023-08-06T11:45:56;34.10;40.50
65072;DHT22;51663;52.310;17.016;2023-08-06T11:48:59;34.10;40.60
65072;DHT22;51663;52.310;17.016;2023-08-06T11:52:08;34.10;40.40
65072;DHT22;51663;52.310;17.016;2023-08-06T11:55:11;34.40;40.30
65072;DHT22;51663;52.310;17.016;2023-08-06T11:58:17;34.40;40.00
65072;DHT22;51663;52.310;17.016;2023-08-06T12:01:19;34.40;40.10
65072;DHT22;51663;52.310;17.016;2023-08-06T12:04:22;34.50;40.30
65072;DHT22;51663;52.310;17.016;2023-08-06T12:07:32;34.40;40.20
65072;DHT22;51663;52.310;17.016;2023-08-06T12:10:34;34.10;40.70
65072;DHT22;51663;52.310;17.016;2023-08-06T12:13:37;34.10;40.70
65072;DHT22;51663;52.310;17.016;2023-08-06T12:16:39;34.00;40.90
65072;DHT22;51663;52.310;17.016;2023-08-06T12:19:44;33.90;41.20
65072;DHT22;51663;52.310;17.016;2023-08-06T12:22:46;34.00;41.10
65072;DHT22;51663;52.310;17.016;2023-08-06T12:25:49;34.10;41.40
65072;DHT22;51663;52.310;17.016;2023-08-06T12:28:51;34.20;40.70
65072;DHT22;51663;52.310;17.016;2023-08-06T12:31:57;34.20;41.10
65072;DHT22;51663;52.310;17.016;2023-08-06T12:34:59;34.10;40.90
65072;DHT22;51663;52.310;17.016;2023-08-06T12:38:02;33.90;41.30
65072;DHT22;51663;52.310;17.016;2023-08-06T12:41:04;33.60;41.80
65072;DHT22;51663;52.310;17.016;2023-08-06T12:44:07;33.00;43.00
65072;DHT22;51663;52.310;17.016;2023-08-06T12:47:09;33.30;42.50
65072;DHT22;51663;52.310;17.016;2023-08-06T12:50:12;33.90;41.80
65072;DHT22;51663;52.310;17.016;2023-08-06T12:53:14;34.10;41.80
65072;DHT22;51663;52.310;17.016;2023-08-06T12:56:16;34.00;41.40
65072;DHT22;51663;52.310;17.016;2023-08-06T12:59:18;34.00;41.40
65072;DHT22;51663;52.310;17.016;2023-08-06T13:02:21;34.30;41.20
65072;DHT22;51663;52.310;17.016;2023-08-06T13:05:23;33.90;41.10
65072;DHT22;51663;52.310;17.016;2023-08-06T13:08:26;33.40;42.50
65072;DHT22;51663;52.310;17.016;2023-08-06T13:11:30;33.20;42.40
65072;DHT22;51663;52.310;17.016;2023-08-06T13:14:34;33.00;42.40
65072;DHT22;51663;52.310;17.016;2023-08-06T13:17:37;33.40;42.50
65072;DHT22;51663;52.310;17.016;2023-08-06T13:20:39;33.60;41.80
65072;DHT22;51663;52.310;17.016;2023-08-06T13:23:44;33.70;41.40
65072;DHT22;51663;52.310;17.016;2023-08-06T13:26:47;33.80;41.10
65072;DHT22;51663;52.310;17.016;2023-08-06T13:29:48;33.80;41.10
65072;DHT22;51663;52.310;17.016;2023-08-06T13:32:51;33.10;41.90
65072;DHT22;51663;52.310;17.016;2023-08-06T13:35:53;33.30;41.90
65072;DHT22;51663;52.310;17.016;2023-08-06T13:38:56;33.60;41.90
65072;DHT22;51663;52.310;17.016;2023-08-06T13:41:58;33.50;41.80
65072;DHT22;51663;52.310;17.016;2023-08-06T13:45:00;33.80;41.50
65072;DHT22;51663;52.310;17.016;2023-08-06T13:48:05;33.70;41.40
65072;DHT22;51663;52.310;17.016;2023-08-06T13:51:09;33.50;42.10
65072;DHT22;51663;52.310;17.016;2023-08-06T13:54:11;33.20;42.10
65072;DHT22;51663;52.310;17.016;2023-08-06T13:57:14;33.10;42.60
65072;DHT22;51663;52.310;17.016;2023-08-06T14:00:16;33.00;42.60
65072;DHT22;51663;52.310;17.016;2023-08-06T14:03:19;33.20;42.30
65072;DHT22;51663;52.310;17.016;2023-08-06T14:06:21;33.10;42.80
65072;DHT22;51663;52.310;17.016;2023-08-06T14:09:23;33.20;42.70
65072;DHT22;51663;52.310;17.016;2023-08-06T14:12:26;33.40;42.10
65072;DHT22;51663;52.310;17.016;2023-08-06T14:15:29;33.60;41.90
65072;DHT22;51663;52.310;17.016;2023-08-06T14:18:31;33.30;42.20
65072;DHT22;51663;52.310;17.016;2023-08-06T14:21:33;33.50;42.20
65072;DHT22;51663;52.310;17.016;2023-08-06T14:24:35;33.10;42.40
65072;DHT22;51663;52.310;17.016;2023-08-06T14:27:38;33.20;42.30
65072;DHT22;51663;52.310;17.016;2023-08-06T14:30:43;33.40;41.80
65072;DHT22;51663;52.310;17.016;2023-08-06T14:33:46;33.30;41.60
65072;DHT22;51663;52.310;17.016;2023-08-06T14:36:48;33.60;42.00
65072;DHT22;51663;52.310;17.016;2023-08-06T14:39:51;33.80;41.60
65072;DHT22;51663;52.310;17.016;2023-08-06T14:42:53;33.70;40.80
65072;DHT22;51663;52.310;17.016;2023-08-06T14:45:55;33.90;41.00
65072;DHT22;51663;52.310;17.016;2023-08-06T14:48:57;33.90;40.90
65072;DHT22;51663;52.310;17.016;2023-08-06T14:52:00;33.90;41.40
65072;DHT22;51663;52.310;17.016;2023-08-06T14:55:03;33.90;40.40
65072;DHT22;51663;52.310;17.016;2023-08-06T14:58:07;34.00;40.70
65072;DHT22;51663;52.310;17.016;2023-08-06T15:01:09;34.00;41.60
65072;DHT22;51663;52.310;17.016;2023-08-06T15:04:12;33.90;40.80
65072;DHT22;51663;52.310;17.016;2023-08-06T15:07:14;34.10;40.80
65072;DHT22;51663;52.310;17.016;2023-08-06T15:10:16;34.00;40.30
65072;DHT22;51663;52.310;17.016;2023-08-06T15:13:21;33.90;40.90
65072;DHT22;51663;52.310;17.016;2023-08-06T15:16:24;33.80;40.70
65072;DHT22;51663;52.310;17.016;2023-08-06T15:19:28;33.90;41.00
65072;DHT22;51663;52.310;17.016;2023-08-06T15:22:31;34.10;40.60
65072;DHT22;51663;52.310;17.016;2023-08-06T15:25:34;34.20;40.10
65072;DHT22;51663;52.310;17.016;2023-08-06T15:28:36;34.10;40.10
65072;DHT22;51663;52.310;17.016;2023-08-06T15:31:39;34.40;40.00
65072;DHT22;51663;52.310;17.016;2023-08-06T15:34:43;34.30;39.90
65072;DHT22;51663;52.310;17.016;2023-08-06T15:37:45;34.30;39.60
65072;DHT22;51663;52.310;17.016;2023-08-06T15:40:47;34.10;39.80
65072;DHT22;51663;52.310;17.016;2023-08-06T15:43:50;34.10;39.80
65072;DHT22;51663;52.310;17.016;2023-08-06T15:46:54;34.20;39.90
65072;DHT22;51663;52.310;17.016;2023-08-06T15:49:56;34.30;39.90
65072;DHT22;51663;52.310;17.016;2023-08-06T15:52:59;34.30;39.80
65072;DHT22;51663;52.310;17.016;2023-08-06T15:56:01;34.40;39.80
65072;DHT22;51663;52.310;17.016;2023-08-06T15:59:29;34.40;39.70
65072;DHT22;51663;52.310;17.016;2023-08-06T16:02:31;34.50;39.60
65072;DHT22;51663;52.310;17.016;2023-08-06T16:05:34;34.50;39.30
65072;DHT22;51663;52.310;17.016;2023-08-06T16:08:37;34.10;39.90
65072;DHT22;51663;52.310;17.016;2023-08-06T16:11:43;34.10;40.00
65072;DHT22;51663;52.310;17.016;2023-08-06T16:14:46;34.20;39.70
65072;DHT22;51663;52.310;17.016;2023-08-06T16:17:49;34.20;39.80
65072;DHT22;51663;52.310;17.016;2023-08-06T16:20:51;33.90;39.70
65072;DHT22;51663;52.310;17.016;2023-08-06T16:23:54;33.70;40.10
65072;DHT22;51663;52.310;17.016;2023-08-06T16:26:57;33.70;40.40
65072;DHT22;51663;52.310;17.016;2023-08-06T16:29:59;33.60;40.30
65072;DHT22;51663;52.310;17.016;2023-08-06T16:33:05;33.90;40.00
65072;DHT22;51663;52.310;17.016;2023-08-06T16:36:13;34.00;39.90
65072;DHT22;51663;52.310;17.016;2023-08-06T16:39:17;33.80;39.60
65072;DHT22;51663;52.310;17.016;2023-08-06T16:42:22;33.80;40.10
65072;DHT22;51663;52.310;17.016;2023-08-06T16:45:24;33.70;40.20
65072;DHT22;51663;52.310;17.016;2023-08-06T16:48:29;34.00;39.90
65072;DHT22;51663;52.310;17.016;2023-08-06T16:51:32;34.00;39.70
65072;DHT22;51663;52.310;17.016;2023-08-06T16:54:35;33.80;39.80
65072;DHT22;51663;52.310;17.016;2023-08-06T16:57:37;33.70;40.10
65072;DHT22;51663;52.310;17.016;2023-08-06T17:00:40;33.80;39.80
65072;DHT22;51663;52.310;17.016;2023-08-06T17:03:41;33.70;39.70
65072;DHT22;51663;52.310;17.016;2023-08-06T17:06:44;33.80;39.50
65072;DHT22;51663;52.310;17.016;2023-08-06T17:09:49;34.00;39.20
65072;DHT22;51663;52.310;17.016;2023-08-06T17:12:51;33.90;39.20
65072;DHT22;51663;52.310;17.016;2023-08-06T17:16:06;34.00;38.90
65072;DHT22;51663;52.310;17.016;2023-08-06T17:19:09;34.10;38.80
65072;DHT22;51663;52.310;17.016;2023-08-06T17:22:11;34.00;39.10
65072;DHT22;51663;52.310;17.016;2023-08-06T17:25:14;33.90;39.00
65072;DHT22;51663;52.310;17.016;2023-08-06T17:28:17;34.00;39.10
65072;DHT22;51663;52.310;17.016;2023-08-06T17:31:20;34.00;38.90
65072;DHT22;51663;52.310;17.016;2023-08-06T17:34:22;34.10;39.00
65072;DHT22;51663;52.310;17.016;2023-08-06T17:37:26;34.00;39.00
65072;DHT22;51663;52.310;17.016;2023-08-06T17:40:28;33.90;39.00
65072;DHT22;51663;52.310;17.016;2023-08-06T17:43:31;33.90;39.10
65072;DHT22;51663;52.310;17.016;2023-08-06T17:46:36;33.90;39.00
65072;DHT22;51663;52.310;17.016;2023-08-06T17:49:39;34.00;38.80
65072;DHT22;51663;52.310;17.016;2023-08-06T17:52:41;34.20;38.90
65072;DHT22;51663;52.310;17.016;2023-08-06T17:55:43;34.10;38.70
65072;DHT22;51663;52.310;17.016;2023-08-06T17:58:45;33.90;38.90
65072;DHT22;51663;52.310;17.016;2023-08-06T18:01:48;34.00;38.60
65072;DHT22;51663;52.310;17.016;2023-08-06T18:04:51;33.90;38.60
65072;DHT22;51663;52.310;17.016;2023-08-06T18:07:53;34.00;38.60
65072;DHT22;51663;52.310;17.016;2023-08-06T18:10:55;33.80;38.60
65072;DHT22;51663;52.310;17.016;2023-08-06T18:13:58;33.70;38.90
65072;DHT22;51663;52.310;17.016;2023-08-06T18:17:00;33.80;38.60
65072;DHT22;51663;52.310;17.016;2023-08-06T18:20:08;33.70;38.60
65072;DHT22;51663;52.310;17.016;2023-08-06T18:23:10;33.70;38.60
65072;DHT22;51663;52.310;17.016;2023-08-06T18:26:14;33.50;38.60
65072;DHT22;51663;52.310;17.016;2023-08-06T18:29:16;33.40;38.70
65072;DHT22;51663;52.310;17.016;2023-08-06T18:32:18;33.30;38.70
65072;DHT22;51663;52.310;17.016;2023-08-06T18:35:20;33.50;39.00
65072;DHT22;51663;52.310;17.016;2023-08-06T18:38:23;33.60;38.70
65072;DHT22;51663;52.310;17.016;2023-08-06T18:41:28;33.70;38.70
65072;DHT22;51663;52.310;17.016;2023-08-06T18:44:30;33.90;38.30
65072;DHT22;51663;52.310;17.016;2023-08-06T18:47:33;33.80;38.60
65072;DHT22;51663;52.310;17.016;2023-08-06T18:50:38;33.60;38.60
65072;DHT22;51663;52.310;17.016;2023-08-06T18:53:41;33.80;38.50
65072;DHT22;51663;52.310;17.016;2023-08-06T18:56:44;33.90;38.40
65072;DHT22;51663;52.310;17.016;2023-08-06T18:59:48;33.90;38.50
65072;DHT22;51663;52.310;17.016;2023-08-06T19:02:51;33.60;38.40
65072;DHT22;51663;52.310;17.016;2023-08-06T19:05:58;33.60;38.70
65072;DHT22;51663;52.310;17.016;2023-08-06T19:09:02;33.80;38.50
65072;DHT22;51663;52.310;17.016;2023-08-06T19:12:06;33.80;38.60
65072;DHT22;51663;52.310;17.016;2023-08-06T19:15:13;33.70;38.50